createdAt,value
2018-03-21T00:01:45.235Z,24.50
2018-03-21T00:05:08.500Z,24.30
2018-03-21T00:08:33.337Z,24.57
2018-03-21T00:11:56.597Z,22.87
2018-03-21T00:15:19.862Z,27.00
2018-03-21T00:18:43.883Z,28.37
2018-03-21T00:22:07.960Z,28.37
2018-03-21T00:25:31.991Z,27.00
2018-03-21T00:28:55.263Z,29.47
2018-03-21T00:32:19.306Z,25.67
2018-03-21T00:35:42.575Z,27.07
2018-03-21T00:39:05.845Z,26.57
2018-03-21T00:42:29.901Z,27.00
2018-03-21T00:45:53.171Z,26.87
2018-03-21T00:49:16.452Z,27.83
2018-03-21T00:52:39.817Z,29.13
2018-03-21T00:56:03.074Z,30.40
2018-03-21T00:59:26.345Z,27.33
2018-03-21T01:02:50.396Z,27.27
2018-03-21T01:06:13.659Z,31.77
2018-03-21T01:09:36.966Z,29.47
2018-03-21T01:13:00.239Z,28.53
2018-03-21T01:16:23.519Z,31.67
2018-03-21T01:19:46.785Z,29.47
2018-03-21T01:23:10.828Z,29.27
2018-03-21T01:26:34.115Z,30.40
2018-03-21T01:29:57.402Z,28.73
2018-03-21T01:33:20.676Z,30.10
2018-03-21T01:36:43.956Z,29.17
2018-03-21T01:40:07.226Z,30.07
2018-03-21T01:43:30.494Z,30.47
2018-03-21T01:46:54.544Z,30.67
2018-03-21T01:50:17.795Z,28.53
2018-03-21T01:53:41.947Z,27.20
2018-03-21T01:57:05.980Z,29.17
2018-03-21T02:00:29.257Z,26.77
2018-03-21T02:03:53.278Z,28.20
2018-03-21T02:07:16.551Z,26.87
2018-03-21T02:10:39.832Z,31.33
2018-03-21T02:14:03.103Z,29.53
2018-03-21T02:17:27.158Z,28.27
2018-03-21T02:20:50.428Z,28.17
2018-03-21T02:24:14.476Z,32.23
2018-03-21T02:27:37.742Z,31.50
2018-03-21T02:31:01.088Z,29.90
2018-03-21T02:34:24.366Z,31.90
2018-03-21T02:37:47.626Z,31.77
2018-03-21T02:41:11.669Z,30.03
2018-03-21T02:44:34.947Z,29.47
2018-03-21T02:47:58.251Z,30.77
2018-03-21T02:51:21.519Z,29.77
2018-03-21T02:54:44.780Z,32.43
2018-03-21T02:58:08.813Z,30.37
2018-03-21T03:01:32.080Z,31.63
2018-03-21T03:04:56.605Z,30.83
2018-03-21T03:08:19.904Z,29.97
2018-03-21T03:11:43.182Z,26.90
2018-03-21T03:15:06.484Z,28.17
2018-03-21T03:18:29.776Z,33.77
2018-03-21T03:21:53.145Z,27.20
2018-03-21T03:25:17.240Z,28.70
2018-03-21T03:28:41.362Z,27.17
2018-03-21T03:32:04.640Z,24.07
2018-03-21T03:35:27.978Z,31.17
2018-03-21T03:38:51.367Z,28.27
2018-03-21T03:42:14.634Z,28.43
2018-03-21T03:45:37.896Z,29.77
2018-03-21T03:49:01.927Z,30.70
2018-03-21T03:52:25.186Z,28.07
2018-03-21T03:55:49.224Z,28.53
2018-03-21T03:59:12.484Z,22.03
2018-03-21T04:02:36.531Z,30.60
2018-03-21T04:05:59.782Z,26.13
2018-03-21T04:09:23.094Z,31.07
2018-03-21T04:12:46.354Z,31.87
2018-03-21T04:16:09.624Z,30.03
2018-03-21T04:19:33.676Z,25.57
2018-03-21T04:22:57.048Z,28.13
2018-03-21T04:26:20.370Z,26.97
2018-03-21T04:29:44.465Z,28.43
2018-03-21T04:33:07.835Z,26.20
2018-03-21T04:36:31.209Z,28.97
2018-03-21T04:39:54.747Z,25.13
2018-03-21T04:43:18.017Z,27.13
2018-03-21T04:46:42.052Z,26.77
2018-03-21T04:50:05.322Z,28.87
2018-03-21T04:53:28.587Z,27.23
2018-03-21T04:56:52.624Z,25.30
2018-03-21T05:00:15.904Z,21.03
2018-03-21T05:03:39.166Z,24.93
2018-03-21T05:07:03.226Z,23.37
2018-03-21T05:10:26.532Z,25.17
2018-03-21T05:13:50.577Z,24.07
2018-03-21T05:17:13.851Z,26.87
2018-03-21T05:20:45.176Z,22.33
2018-03-21T05:24:10.114Z,25.53
2018-03-21T05:27:33.393Z,24.03
2018-03-21T05:30:56.656Z,26.90
2018-03-21T05:34:19.932Z,24.47
2018-03-21T05:37:44.024Z,19.97
2018-03-21T05:41:07.290Z,24.77
2018-03-21T05:44:31.308Z,24.53
2018-03-21T05:47:55.472Z,21.40
2018-03-21T05:51:18.694Z,22.37
2018-03-21T05:54:41.975Z,20.70
2018-03-21T05:58:05.320Z,22.07
2018-03-21T06:01:44.155Z,20.77
2018-03-21T06:05:08.270Z,19.33
2018-03-21T06:08:31.729Z,19.40
2018-03-21T06:11:55.785Z,18.63
2018-03-21T06:15:19.644Z,17.67
2018-03-21T06:18:43.004Z,15.87
2018-03-21T06:22:06.343Z,16.50
2018-03-21T06:25:29.682Z,14.53
2018-03-21T06:28:53.777Z,13.57
2018-03-21T06:32:18.052Z,13.50
2018-03-21T06:35:41.452Z,13.13
2018-03-21T06:39:04.846Z,13.37
2018-03-21T06:42:28.118Z,12.47
2018-03-21T06:45:51.585Z,12.00
2018-03-21T06:49:16.462Z,12.90
2018-03-21T06:52:40.557Z,11.23
2018-03-21T06:56:03.840Z,10.87
2018-03-21T06:59:32.622Z,10.23
2018-03-21T07:02:56.865Z,10.70
2018-03-21T07:06:21.067Z,9.83
2018-03-21T07:09:44.442Z,9.87
2018-03-21T07:13:08.578Z,10.17
2018-03-21T07:16:43.808Z,9.47
2018-03-21T07:20:07.894Z,11.60
2018-03-21T07:23:31.993Z,8.60
2018-03-21T07:26:56.077Z,8.70
2018-03-21T07:30:20.206Z,8.37
2018-03-21T07:33:43.718Z,6.20
2018-03-21T07:37:07.864Z,7.90
2018-03-21T07:40:31.190Z,6.80
2018-03-21T07:43:54.507Z,7.33
2018-03-21T07:47:17.833Z,8.47
2018-03-21T07:50:41.122Z,10.97
2018-03-21T07:54:04.420Z,6.93
2018-03-21T07:57:27.686Z,6.90
2018-03-21T08:00:53.911Z,7.53
2018-03-21T08:04:17.173Z,10.90
2018-03-21T08:07:40.503Z,7.93
2018-03-21T08:11:03.797Z,7.37
2018-03-21T08:14:27.088Z,9.90
2018-03-21T08:17:50.377Z,7.53
2018-03-21T08:21:13.671Z,10.00
2018-03-21T08:24:36.936Z,7.00
2018-03-21T08:28:00.213Z,9.57
2018-03-21T08:31:24.239Z,7.10
2018-03-21T08:34:47.502Z,4.70
2018-03-21T08:38:12.594Z,7.40
2018-03-21T08:41:36.630Z,7.00
2018-03-21T08:44:59.901Z,9.27
2018-03-21T08:48:23.180Z,5.40
2018-03-21T08:51:47.213Z,8.27
2018-03-21T08:55:10.508Z,6.57
2018-03-21T08:58:33.750Z,9.90
2018-03-21T09:01:57.798Z,4.93
2018-03-21T09:05:21.074Z,6.50
2018-03-21T09:08:44.354Z,7.27
2018-03-21T09:12:07.622Z,8.23
2018-03-21T09:15:31.673Z,7.27
2018-03-21T09:18:55.826Z,6.93
2018-03-21T09:22:19.086Z,7.30
2018-03-21T09:25:42.365Z,6.97
2018-03-21T09:29:06.766Z,8.87
2018-03-21T09:32:30.018Z,4.80
2018-03-21T09:35:54.108Z,4.57
2018-03-21T09:39:17.416Z,7.73
2018-03-21T09:42:40.720Z,6.77
2018-03-21T09:46:03.984Z,6.30
2018-03-21T09:49:27.263Z,6.77
2018-03-21T09:52:50.555Z,8.27
2018-03-21T09:56:13.829Z,5.67
2018-03-21T09:59:37.133Z,8.47
2018-03-21T10:03:00.397Z,5.53
2018-03-21T10:06:23.677Z,8.23
2018-03-21T10:09:46.938Z,5.03
2018-03-21T10:13:10.998Z,6.80
2018-03-21T10:16:34.269Z,6.27
2018-03-21T10:19:57.542Z,6.33
2018-03-21T10:23:20.920Z,8.63
2018-03-21T10:26:44.194Z,7.73
2018-03-21T10:30:07.456Z,7.43
2018-03-21T10:33:30.765Z,8.20
2018-03-21T10:36:54.028Z,6.67
2018-03-21T10:40:18.054Z,7.17
2018-03-21T10:43:41.346Z,7.23
2018-03-21T10:47:04.619Z,5.90
2018-03-21T10:50:27.900Z,3.83
2018-03-21T10:53:51.171Z,6.83
2018-03-21T10:57:14.994Z,6.73
2018-03-21T11:00:38.264Z,4.90
2018-03-21T11:04:08.842Z,9.37
2018-03-21T11:07:32.112Z,9.40
2018-03-21T11:10:55.386Z,6.17
2018-03-21T11:14:21.345Z,6.33
2018-03-21T11:17:49.007Z,5.03
2018-03-21T11:21:14.263Z,6.50
2018-03-21T11:24:38.347Z,6.60
2018-03-21T11:28:01.624Z,4.63
2018-03-21T11:31:39.537Z,6.63
2018-03-21T11:35:04.691Z,8.33
2018-03-21T11:38:38.810Z,8.80
2018-03-21T11:42:03.164Z,8.03
2018-03-21T11:45:27.889Z,7.87
2018-03-21T11:48:52.110Z,6.63
2018-03-21T11:52:16.520Z,6.53
2018-03-21T11:55:40.745Z,5.00
2018-03-21T11:59:05.555Z,7.23
2018-03-21T12:02:30.202Z,5.97
2018-03-21T12:06:04.027Z,5.83
2018-03-21T12:09:27.467Z,10.63
2018-03-21T12:12:51.974Z,6.10
2018-03-21T12:16:15.320Z,6.07
2018-03-21T12:19:38.618Z,4.97
2018-03-21T12:23:02.035Z,5.63
2018-03-21T12:26:25.325Z,5.50
2018-03-21T12:29:48.613Z,5.60
2018-03-21T12:33:11.896Z,8.53
2018-03-21T12:36:35.151Z,6.60
2018-03-21T12:39:58.430Z,4.70
2018-03-21T12:43:21.670Z,4.87
2018-03-21T12:46:44.940Z,4.50
2018-03-21T12:50:08.263Z,5.27
2018-03-21T12:53:31.466Z,7.43
2018-03-21T12:56:55.512Z,5.63
2018-03-21T13:00:18.782Z,4.33
2018-03-21T13:03:42.061Z,5.33
2018-03-21T13:07:06.094Z,5.47
2018-03-21T13:10:29.358Z,3.83
2018-03-21T13:13:53.397Z,4.07
2018-03-21T13:17:16.667Z,4.33
2018-03-21T13:20:39.951Z,4.47
2018-03-21T13:24:03.225Z,5.17
2018-03-21T13:27:26.502Z,4.20
2018-03-21T13:30:50.602Z,6.43
2018-03-21T13:34:13.897Z,4.13
2018-03-21T13:37:37.181Z,5.13
2018-03-21T13:41:00.464Z,4.53
2018-03-21T13:44:23.751Z,5.57
2018-03-21T13:47:47.025Z,2.87
2018-03-21T13:51:10.307Z,3.97
2018-03-21T13:54:33.604Z,4.03
2018-03-21T13:57:56.871Z,7.63
2018-03-21T14:01:20.323Z,6.43
2018-03-21T14:04:43.581Z,4.37
2018-03-21T14:08:07.666Z,5.27
2018-03-21T14:11:30.964Z,4.30
2018-03-21T14:14:54.237Z,4.53
2018-03-21T14:18:18.328Z,4.37
2018-03-21T14:21:41.579Z,5.27
2018-03-21T14:25:05.627Z,4.80
2018-03-21T14:28:28.910Z,4.07
2018-03-21T14:31:52.242Z,5.83
2018-03-21T14:35:16.278Z,4.10
2018-03-21T14:38:39.566Z,4.80
2018-03-21T14:42:02.858Z,4.87
2018-03-21T14:45:26.134Z,4.50
2018-03-21T14:48:49.425Z,6.10
2018-03-21T14:52:12.703Z,4.60
2018-03-21T14:55:35.990Z,4.47
2018-03-21T14:58:59.253Z,4.77
2018-03-21T15:02:23.425Z,4.13
2018-03-21T15:05:46.701Z,3.30
2018-03-21T15:09:10.074Z,5.10
2018-03-21T15:12:33.361Z,5.17
2018-03-21T15:15:56.648Z,4.13
2018-03-21T15:19:19.974Z,4.47
2018-03-21T15:22:45.057Z,4.43
2018-03-21T15:26:08.385Z,4.20
2018-03-21T15:29:31.671Z,4.50
2018-03-21T15:32:54.966Z,3.80
2018-03-21T15:36:19.416Z,4.10
2018-03-21T15:39:42.769Z,4.87
2018-03-21T15:43:06.108Z,6.87
2018-03-21T15:46:29.364Z,4.33
2018-03-21T15:49:53.513Z,6.23
2018-03-21T15:53:16.815Z,3.83
2018-03-21T15:56:40.849Z,3.87
2018-03-21T16:00:04.158Z,4.30
2018-03-21T16:03:28.322Z,4.77
2018-03-21T16:06:51.599Z,4.80
2018-03-21T16:10:14.909Z,4.90
2018-03-21T16:13:39.013Z,6.10
2018-03-21T16:17:02.309Z,5.00
2018-03-21T16:20:25.572Z,6.67
2018-03-21T16:23:48.861Z,5.17
2018-03-21T16:27:12.146Z,4.53
2018-03-21T16:30:35.407Z,5.57
2018-03-21T16:33:59.442Z,4.37
2018-03-21T16:37:22.773Z,5.80
2018-03-21T16:40:46.921Z,5.10
2018-03-21T16:44:10.244Z,3.60
2018-03-21T16:47:33.569Z,3.77
2018-03-21T16:50:57.612Z,3.70
2018-03-21T16:54:20.986Z,5.13
2018-03-21T16:57:45.287Z,6.40
2018-03-21T17:01:09.690Z,3.53
2018-03-21T17:04:34.754Z,3.77
2018-03-21T17:07:58.064Z,4.80
2018-03-21T17:11:22.195Z,4.30
2018-03-21T17:14:45.465Z,4.50
2018-03-21T17:18:08.762Z,4.37
2018-03-21T17:21:33.164Z,3.93
2018-03-21T17:24:56.493Z,3.87
2018-03-21T17:28:19.756Z,4.23
2018-03-21T17:31:44.644Z,3.97
2018-03-21T17:35:10.964Z,5.40
2018-03-21T17:38:34.342Z,3.83
2018-03-21T17:41:58.242Z,4.13
2018-03-21T17:45:22.107Z,3.80
2018-03-21T17:48:45.479Z,5.17
2018-03-21T17:52:09.723Z,5.00
2018-03-21T17:55:34.030Z,5.20
2018-03-21T17:58:58.206Z,4.43
2018-03-21T18:02:21.575Z,6.10
2018-03-21T18:05:45.165Z,4.77
2018-03-21T18:09:09.350Z,4.07
2018-03-21T18:12:33.581Z,4.93
2018-03-21T18:15:57.080Z,5.37
2018-03-21T18:19:20.603Z,4.90
2018-03-21T18:22:45.083Z,4.90
2018-03-21T18:26:09.300Z,6.40
2018-03-21T18:29:32.796Z,8.23
2018-03-21T18:32:57.091Z,4.80
2018-03-21T18:36:21.527Z,4.87
2018-03-21T18:39:45.444Z,5.73
2018-03-21T18:43:10.789Z,7.17
2018-03-21T18:46:35.012Z,6.37
2018-03-21T18:49:59.234Z,5.97
2018-03-21T18:53:22.569Z,5.90
2018-03-21T18:56:46.652Z,7.00
2018-03-21T19:00:10.714Z,8.07
2018-03-21T19:03:34.188Z,6.00
2018-03-21T19:06:58.302Z,5.43
2018-03-21T19:10:21.667Z,5.97
2018-03-21T19:13:45.095Z,5.90
2018-03-21T19:17:08.327Z,7.60
2018-03-21T19:20:33.902Z,6.07
2018-03-21T19:23:57.281Z,7.60
2018-03-21T19:27:23.132Z,6.27
2018-03-21T19:30:46.498Z,6.13
2018-03-21T19:34:10.947Z,6.97
2018-03-21T19:37:35.323Z,6.97
2018-03-21T19:40:59.966Z,6.97
2018-03-21T19:44:25.415Z,9.03
2018-03-21T19:47:48.754Z,8.00
2018-03-21T19:51:12.028Z,5.90
2018-03-21T19:54:35.350Z,6.37
2018-03-21T19:57:58.674Z,7.97
2018-03-21T20:01:22.007Z,6.17
2018-03-21T20:04:46.489Z,6.67
2018-03-21T20:08:09.873Z,7.13
2018-03-21T20:11:33.930Z,6.53
2018-03-21T20:14:57.282Z,6.80
2018-03-21T20:18:20.645Z,8.57
2018-03-21T20:21:43.910Z,6.03
2018-03-21T20:25:07.216Z,8.97
2018-03-21T20:28:31.592Z,8.60
2018-03-21T20:31:54.958Z,7.40
2018-03-21T20:35:18.293Z,6.97
2018-03-21T20:38:41.563Z,7.27
2018-03-21T20:42:04.874Z,7.87
2018-03-21T20:45:28.187Z,7.83
2018-03-21T20:48:52.303Z,8.10
2018-03-21T20:52:16.582Z,8.07
2018-03-21T20:55:39.887Z,8.13
2018-03-21T20:59:03.206Z,8.43
2018-03-21T21:02:26.459Z,8.73
2018-03-21T21:05:49.742Z,8.27
2018-03-21T21:09:13.000Z,8.60
2018-03-21T21:12:36.322Z,8.93
2018-03-21T21:15:59.757Z,8.27
2018-03-21T21:19:23.093Z,10.10
2018-03-21T21:22:46.452Z,7.60
2018-03-21T21:26:18.041Z,8.80
2018-03-21T21:29:42.399Z,7.53
2018-03-21T21:33:06.588Z,9.03
2018-03-21T21:36:30.983Z,12.17
2018-03-21T21:39:54.304Z,10.17
2018-03-21T21:43:17.635Z,7.17
2018-03-21T21:46:40.930Z,7.67
2018-03-21T21:50:04.310Z,10.67
2018-03-21T21:53:27.651Z,7.63
2018-03-21T21:56:50.923Z,7.77
2018-03-21T22:00:14.202Z,8.93
2018-03-21T22:03:37.496Z,9.40
2018-03-21T22:07:00.772Z,8.80
2018-03-21T22:10:24.030Z,7.60
2018-03-21T22:13:48.316Z,7.00
2018-03-21T22:17:11.704Z,8.43
2018-03-21T22:20:35.728Z,8.07
2018-03-21T22:23:59.815Z,7.73
2018-03-21T22:27:23.085Z,7.87
2018-03-21T22:30:47.549Z,7.63
2018-03-21T22:34:10.861Z,8.93
2018-03-21T22:37:34.905Z,10.53
2018-03-21T22:40:58.211Z,8.27
2018-03-21T22:44:22.934Z,8.17
2018-03-21T22:47:46.225Z,6.43
2018-03-21T22:51:09.510Z,8.17
2018-03-21T22:54:32.823Z,8.17
2018-03-21T22:57:56.071Z,8.67
2018-03-21T23:01:19.347Z,9.70
2018-03-21T23:04:42.622Z,9.37
2018-03-21T23:08:06.724Z,8.50
2018-03-21T23:11:30.022Z,6.93
2018-03-21T23:14:53.353Z,8.67
2018-03-21T23:18:16.638Z,8.27
2018-03-21T23:21:39.925Z,7.90
2018-03-21T23:25:03.233Z,6.53
2018-03-21T23:28:26.492Z,8.50
2018-03-21T23:31:49.775Z,7.57
2018-03-21T23:35:13.053Z,6.73
2018-03-21T23:38:37.169Z,7.50
2018-03-21T23:42:00.413Z,8.27
2018-03-21T23:45:24.520Z,8.43
2018-03-21T23:48:47.887Z,9.20
2018-03-21T23:52:12.206Z,9.43
2018-03-21T23:55:35.533Z,8.17
2018-03-21T23:58:58.849Z,11.40
